Time;durP1;ratioP1;P1;durP2;ratioP2;P2;SDS_P1;SDS_P2;PMS_P1;PMS_P2;Temp;Humidity;BMP_temperature;BMP_pressure;BME280_temperature;BME280_humidity;BME280_pressure;Samples;Min_cycle;Max_cycle;Signal;HPM_P1;HPM_P2
2020/12/11 00:00:54;;;;;;;12.55;8.35;;;20.20;48.90;;;;;;5143105;28;20026;-77
2020/12/11 00:03:25;;;;;;;11.88;7.47;;;20.20;48.90;;;;;;5155040;28;20022;-78
2020/12/11 00:05:55;;;;;;;12.32;8.00;;;20.20;48.80;;;;;;5166886;28;20397;-78
2020/12/11 00:08:26;;;;;;;13.50;8.98;;;20.20;49.00;;;;;;5153559;28;20033;-78
2020/12/11 00:10:56;;;;;;;13.35;8.05;;;20.20;48.80;;;;;;5144711;28;20498;-79
2020/12/11 00:13:27;;;;;;;13.70;8.73;;;20.20;48.80;;;;;;5144812;28;20089;-78
2020/12/11 00:16:00;;;;;;;12.25;8.10;;;20.20;48.80;;;;;;5143989;28;20038;-76
2020/12/11 00:18:31;;;;;;;13.90;8.18;;;20.20;48.80;;;;;;5145378;28;20101;-78
2020/12/11 00:21:03;;;;;;;13.00;8.27;;;20.10;48.70;;;;;;5142611;28;20110;-77
2020/12/11 00:23:33;;;;;;;13.10;8.23;;;20.10;48.70;;;;;;5122654;29;20031;-78
2020/12/11 00:26:04;;;;;;;11.57;8.32;;;20.20;48.70;;;;;;5137640;28;20035;-77
2020/12/11 00:28:35;;;;;;;11.88;7.95;;;20.20;48.70;;;;;;5125347;28;20430;-78
2020/12/11 00:31:05;;;;;;;13.63;8.88;;;20.30;48.70;;;;;;5141320;28;20089;-77
2020/12/11 00:33:36;;;;;;;12.48;8.10;;;20.20;49.10;;;;;;5143464;28;20035;-79
2020/12/11 00:36:06;;;;;;;15.65;8.27;;;20.20;48.80;;;;;;5142645;28;20054;-79
2020/12/11 00:38:37;;;;;;;15.40;8.52;;;20.20;49.00;;;;;;5126334;28;20066;-78
2020/12/11 00:41:07;;;;;;;13.65;8.40;;;20.20;49.00;;;;;;5125634;28;20042;-78
2020/12/11 00:43:38;;;;;;;12.15;8.15;;;20.20;48.90;;;;;;5143508;28;20035;-78
2020/12/11 00:46:08;;;;;;;14.02;8.23;;;20.10;48.90;;;;;;5142928;28;20054;-78
2020/12/11 00:48:39;;;;;;;13.57;8.45;;;20.20;49.10;;;;;;5148261;28;20027;-77
2020/12/11 00:51:10;;;;;;;12.65;7.97;;;20.20;49.00;;;;;;5156760;28;20042;-78
2020/12/11 00:53:40;;;;;;;12.95;8.25;;;20.20;49.10;;;;;;5161049;28;20166;-77
2020/12/11 00:56:11;;;;;;;14.52;8.60;;;20.20;48.90;;;;;;5157301;28;20045;-78
2020/12/11 00:58:41;;;;;;;13.35;8.43;;;20.20;48.80;;;;;;5157668;28;20031;-79
2020/12/11 01:01:12;;;;;;;13.23;8.40;;;20.20;48.80;;;;;;5136535;28;20080;-78
2020/12/11 01:03:42;;;;;;;19.80;8.52;;;20.20;48.80;;;;;;5154482;28;20026;-78
2020/12/11 01:06:13;;;;;;;14.35;8.68;;;20.20;48.70;;;;;;5145763;28;20519;-78
2020/12/11 01:08:44;;;;;;;15.20;8.75;;;20.30;48.70;;;;;;5132493;28;20042;-79
2020/12/11 01:11:14;;;;;;;12.45;8.07;;;20.20;48.70;;;;;;5148380;28;20076;-79
2020/12/11 01:13:45;;;;;;;15.52;9.13;;;20.20;48.70;;;;;;5171420;28;20404;-78
2020/12/11 01:16:15;;;;;;;15.15;9.15;;;20.20;48.90;;;;;;5144834;28;20045;-78
2020/12/11 01:18:46;;;;;;;14.65;8.75;;;20.20;48.80;;;;;;5151226;28;20626;-78
2020/12/11 01:21:16;;;;;;;18.30;8.98;;;20.20;48.70;;;;;;5164652;28;20080;-79
2020/12/11 01:23:47;;;;;;;14.50;8.93;;;20.20;48.70;;;;;;5164794;28;20030;-78
2020/12/11 01:26:17;;;;;;;14.75;9.18;;;20.20;48.60;;;;;;5154497;28;20052;-78
2020/12/11 01:28:48;;;;;;;14.98;8.88;;;20.20;48.70;;;;;;5158833;28;20057;-79
2020/12/11 01:31:19;;;;;;;14.73;9.02;;;20.20;48.60;;;;;;5156467;28;20041;-78
2020/12/11 01:33:49;;;;;;;13.13;8.65;;;20.20;48.60;;;;;;5135098;28;20027;-78
2020/12/11 01:36:26;;;;;;;16.25;9.40;;;20.20;48.60;;;;;;5145524;28;20038;-77
2020/12/11 01:38:57;;;;;;;15.35;9.40;;;20.20;48.60;;;;;;5143251;28;20165;-78
2020/12/11 01:41:30;;;;;;;16.10;9.50;;;20.20;48.50;;;;;;5158879;28;20042;-79
2020/12/11 01:44:10;;;;;;;14.88;9.27;;;20.20;48.70;;;;;;5132836;28;20034;-78
2020/12/11 01:46:41;;;;;;;14.77;9.10;;;20.10;48.70;;;;;;5151423;28;20039;-78
2020/12/11 01:49:11;;;;;;;14.50;9.50;;;20.20;48.90;;;;;;5146860;28;20035;-78
2020/12/11 01:51:43;;;;;;;18.13;10.07;;;20.10;48.50;;;;;;5161813;28;20127;-79
2020/12/11 01:54:13;;;;;;;16.08;9.52;;;20.20;48.90;;;;;;5146418;28;20026;-78
2020/12/11 01:56:59;;;;;;;13.70;8.75;;;20.10;48.80;;;;;;5162332;28;20036;-78
2020/12/11 01:59:35;;;;;;;16.50;9.80;;;20.10;48.90;;;;;;5164943;28;20076;-78
2020/12/11 02:02:06;;;;;;;14.52;9.25;;;20.10;48.80;;;;;;5152067;28;20031;-78
2020/12/11 02:04:37;;;;;;;14.90;9.65;;;20.10;48.70;;;;;;5165671;28;20061;-77
2020/12/11 02:07:08;;;;;;;15.95;10.05;;;20.20;48.80;;;;;;5167486;28;20022;-79
2020/12/11 02:09:38;;;;;;;16.73;9.93;;;20.20;48.90;;;;;;5158606;28;20038;-79
2020/12/11 02:12:09;;;;;;;14.05;9.27;;;20.10;48.70;;;;;;5152653;28;20522;-79
2020/12/11 02:14:39;;;;;;;17.35;9.80;;;20.10;48.60;;;;;;5170486;28;20093;-78
2020/12/11 02:17:10;;;;;;;15.30;9.57;;;20.10;48.60;;;;;;5174064;28;20047;-78
2020/12/11 02:19:40;;;;;;;17.83;10.27;;;20.10;48.60;;;;;;5150903;28;20034;-79
2020/12/11 02:22:11;;;;;;;17.02;10.40;;;20.20;48.70;;;;;;5166529;28;20511;-78
2020/12/11 02:24:41;;;;;;;17.55;10.43;;;20.20;48.90;;;;;;5173867;28;20030;-78
2020/12/11 02:27:12;;;;;;;19.15;11.05;;;20.20;48.90;;;;;;5147472;28;20476;-78
2020/12/11 02:29:42;;;;;;;17.77;10.48;;;20.20;48.70;;;;;;5156772;28;20089;-78
2020/12/11 02:32:15;;;;;;;18.63;10.13;;;20.20;48.70;;;;;;5167859;28;20444;-78
2020/12/11 02:34:46;;;;;;;17.77;10.60;;;20.20;49.00;;;;;;5164820;28;20030;-78
2020/12/11 02:37:16;;;;;;;18.20;10.43;;;20.20;48.70;;;;;;5165346;28;20025;-78
2020/12/11 02:39:47;;;;;;;16.77;10.63;;;20.10;48.90;;;;;;5163765;28;20089;-78
2020/12/11 02:42:17;;;;;;;16.60;10.20;;;20.20;48.90;;;;;;5172726;28;20157;-78
2020/12/11 02:44:48;;;;;;;17.33;10.27;;;20.10;48.80;;;;;;5163703;28;20049;-78
2020/12/11 02:47:18;;;;;;;17.27;10.45;;;20.20;48.80;;;;;;5166132;28;20030;-78
2020/12/11 02:49:49;;;;;;;17.40;10.45;;;20.20;48.70;;;;;;5147060;28;20113;-78
2020/12/11 02:52:19;;;;;;;19.08;10.18;;;20.10;48.70;;;;;;5164692;28;20031;-78
2020/12/11 02:54:50;;;;;;;16.45;10.48;;;20.10;48.70;;;;;;5166096;28;20045;-79
2020/12/11 02:57:20;;;;;;;17.98;10.75;;;20.20;48.80;;;;;;5165990;28;20030;-78
2020/12/11 02:59:51;;;;;;;17.77;10.40;;;20.10;48.60;;;;;;5165441;28;20065;-78
2020/12/11 03:02:21;;;;;;;16.13;10.13;;;20.10;48.70;;;;;;5165254;28;20126;-77
2020/12/11 03:04:52;;;;;;;17.80;11.07;;;20.10;48.60;;;;;;5166620;28;20093;-79
2020/12/11 03:07:22;;;;;;;16.92;10.63;;;20.10;48.60;;;;;;5166068;28;20392;-77
2020/12/11 03:09:53;;;;;;;17.17;10.70;;;20.10;48.60;;;;;;5164928;28;20079;-78
2020/12/11 03:12:23;;;;;;;16.90;10.82;;;20.20;48.70;;;;;;5164832;28;20030;-79
2020/12/11 03:14:54;;;;;;;16.95;10.35;;;20.10;48.60;;;;;;5166444;28;20140;-78
2020/12/11 03:17:24;;;;;;;16.95;10.30;;;20.20;48.70;;;;;;5163660;28;20030;-77
2020/12/11 03:19:55;;;;;;;18.20;10.38;;;20.20;48.60;;;;;;5164039;28;20041;-78
2020/12/11 03:22:25;;;;;;;18.00;10.02;;;20.20;48.60;;;;;;5163924;28;20397;-78
2020/12/11 03:24:56;;;;;;;16.25;9.90;;;20.20;48.70;;;;;;5164278;28;20031;-77
2020/12/11 03:27:26;;;;;;;13.63;9.07;;;20.20;48.60;;;;;;5144550;28;20097;-78
2020/12/11 03:29:57;;;;;;;17.77;10.50;;;20.10;48.50;;;;;;5154759;28;20037;-78
2020/12/11 03:32:27;;;;;;;15.95;9.75;;;20.20;48.60;;;;;;5168302;28;20026;-79
2020/12/11 03:34:58;;;;;;;16.55;9.02;;;20.20;48.80;;;;;;5156849;28;20035;-79
2020/12/11 03:37:28;;;;;;;16.50;10.18;;;20.10;48.60;;;;;;5160161;28;20017;-79
2020/12/11 03:39:59;;;;;;;16.50;9.07;;;20.10;48.60;;;;;;5156830;28;20038;-77
2020/12/11 03:42:30;;;;;;;15.95;9.52;;;20.10;48.70;;;;;;5138914;28;20026;-78
2020/12/11 03:45:00;;;;;;;15.07;9.23;;;20.20;48.70;;;;;;5150948;28;20037;-79
2020/12/11 03:47:31;;;;;;;14.13;9.00;;;20.10;48.70;;;;;;5147042;28;20053;-79
2020/12/11 03:50:01;;;;;;;15.63;9.13;;;20.20;48.80;;;;;;5156847;28;20030;-78
2020/12/11 03:52:32;;;;;;;15.20;9.63;;;20.10;48.50;;;;;;5160931;28;20018;-78
2020/12/11 03:55:02;;;;;;;13.40;8.80;;;20.10;48.90;;;;;;5168241;28;20031;-79
2020/12/11 03:57:33;;;;;;;15.25;8.32;;;20.20;48.90;;;;;;5153024;28;20030;-79
2020/12/11 04:00:04;;;;;;;13.50;9.05;;;20.20;48.80;;;;;;5154274;28;20033;-79
2020/12/11 04:02:35;;;;;;;16.35;9.13;;;20.10;48.70;;;;;;5159671;28;20030;-79
2020/12/11 04:05:06;;;;;;;13.65;8.80;;;20.10;48.70;;;;;;5147192;28;20105;-79
2020/12/11 04:07:36;;;;;;;13.45;8.38;;;20.10;48.70;;;;;;5147798;28;20029;-79
2020/12/11 04:10:07;;;;;;;13.48;8.50;;;20.10;48.50;;;;;;5155173;28;20061;-79
2020/12/11 04:12:37;;;;;;;13.52;8.75;;;20.20;48.80;;;;;;5143268;28;20023;-79
2020/12/11 04:15:08;;;;;;;14.52;8.95;;;20.10;48.80;;;;;;5154213;28;20421;-79
2020/12/11 04:17:38;;;;;;;15.48;8.63;;;20.10;48.70;;;;;;5147876;28;20025;-79
2020/12/11 04:20:09;;;;;;;13.27;8.75;;;20.10;48.80;;;;;;5164221;28;20026;-79
2020/12/11 04:22:39;;;;;;;17.25;8.52;;;20.10;48.70;;;;;;5163137;28;20409;-79
2020/12/11 04:25:09;;;;;;;13.43;8.98;;;20.10;48.70;;;;;;5164241;28;20038;-78
2020/12/11 04:27:40;;;;;;;12.52;8.35;;;20.10;48.60;;;;;;5136794;28;20404;-79
2020/12/11 04:30:10;;;;;;;12.43;7.88;;;20.20;48.60;;;;;;5154121;28;20181;-79
2020/12/11 04:32:41;;;;;;;12.85;8.52;;;20.10;48.50;;;;;;5157131;28;20457;-79
2020/12/11 04:35:11;;;;;;;13.35;8.18;;;20.10;48.50;;;;;;5159762;28;20159;-78
2020/12/11 04:37:42;;;;;;;18.80;8.50;;;20.10;48.50;;;;;;5142531;28;20031;-77
2020/12/11 04:40:13;;;;;;;12.60;7.60;;;20.20;48.70;;;;;;5125913;28;20037;-77
2020/12/11 04:42:44;;;;;;;12.68;7.25;;;20.20;49.70;;;;;;5142264;28;20034;-78
2020/12/11 04:45:15;;;;;;;30.40;7.15;;;20.40;50.00;;;;;;5143575;28;20026;-78
2020/12/11 04:47:46;;;;;;;14.52;7.47;;;20.40;49.60;;;;;;5159188;28;20045;-78
2020/12/11 04:50:17;;;;;;;12.68;7.53;;;20.40;49.50;;;;;;5157451;28;20027;-77
2020/12/11 04:52:48;;;;;;;13.02;7.32;;;20.30;49.60;;;;;;5125485;28;20085;-78
2020/12/11 04:55:19;;;;;;;17.15;7.22;;;20.30;49.30;;;;;;5126166;28;20485;-76
2020/12/11 04:57:51;;;;;;;14.68;7.88;;;20.20;49.30;;;;;;5125649;28;20039;-76
2020/12/11 05:00:22;;;;;;;12.65;7.95;;;20.20;49.60;;;;;;5106916;28;20046;-76
2020/12/11 05:02:53;;;;;;;13.82;8.07;;;20.10;49.60;;;;;;5147342;28;20489;-76
2020/12/11 05:05:23;;;;;;;14.18;7.80;;;20.10;49.50;;;;;;5160423;28;20036;-76
2020/12/11 05:07:54;;;;;;;12.55;8.18;;;20.00;49.30;;;;;;5161723;28;20025;-76
2020/12/11 05:10:24;;;;;;;13.23;7.03;;;20.00;49.30;;;;;;5144503;28;20023;-76
2020/12/11 05:12:55;;;;;;;11.18;7.38;;;20.00;49.40;;;;;;5161037;28;20042;-76
2020/12/11 05:15:26;;;;;;;15.20;7.90;;;20.00;49.20;;;;;;5159639;28;20452;-76
2020/12/11 05:17:56;;;;;;;14.30;7.85;;;20.00;49.30;;;;;;5162122;28;20484;-77
2020/12/11 05:20:27;;;;;;;11.40;7.18;;;20.00;49.30;;;;;;5161489;28;20026;-76
2020/12/11 05:23:07;;;;;;;17.08;7.28;;;20.00;49.40;;;;;;5159772;28;20034;-77
2020/12/11 05:25:38;;;;;;;15.00;7.28;;;19.90;49.20;;;;;;5159409;28;20057;-76
2020/12/11 05:28:08;;;;;;;12.45;8.00;;;19.90;49.10;;;;;;5163022;28;20026;-76
2020/12/11 05:30:39;;;;;;;10.52;6.95;;;19.90;48.80;;;;;;5172389;28;20030;-77
2020/12/11 05:33:09;;;;;;;11.50;7.10;;;19.90;49.00;;;;;;5161095;28;20030;-76
2020/12/11 05:35:40;;;;;;;11.65;7.60;;;19.90;48.90;;;;;;5163046;28;20096;-76
2020/12/11 05:38:10;;;;;;;10.07;7.10;;;19.90;48.80;;;;;;5163549;28;20034;-77
2020/12/11 05:40:41;;;;;;;13.30;7.72;;;19.90;48.80;;;;;;5162366;28;20042;-77
2020/12/11 05:43:15;;;;;;;13.88;8.77;;;19.90;49.20;;;;;;5163212;28;20026;-76
2020/12/11 05:45:53;;;;;;;13.05;7.40;;;19.90;49.00;;;;;;5161833;28;20685;-76
2020/12/11 05:48:35;;;;;;;11.57;7.88;;;19.90;49.10;;;;;;5163528;28;20065;-76
2020/12/11 05:51:15;;;;;;;7.95;6.20;;;19.80;49.10;;;;;;5142190;28;20042;-77
2020/12/11 05:53:45;;;;;;;10.13;6.80;;;19.90;49.00;;;;;;5147017;28;20562;-77
2020/12/11 05:56:16;;;;;;;11.27;7.43;;;19.80;48.60;;;;;;5146703;28;20126;-76
2020/12/11 05:58:49;;;;;;;9.77;6.40;;;19.80;49.00;;;;;;5146657;28;20034;-76
2020/12/11 06:01:19;;;;;;;10.50;7.85;;;19.80;48.70;;;;;;5161282;28;20084;-78
2020/12/11 06:03:50;;;;;;;11.07;7.47;;;19.80;48.60;;;;;;5163200;28;20507;-77
2020/12/11 06:06:21;;;;;;;10.85;7.63;;;19.80;48.00;;;;;;5162793;28;20183;-77
2020/12/11 06:08:51;;;;;;;9.63;6.85;;;19.80;48.00;;;;;;5163135;28;20507;-77
2020/12/11 06:11:22;;;;;;;11.52;7.40;;;19.80;48.70;;;;;;5162291;28;20035;-77
2020/12/11 06:13:56;;;;;;;11.70;7.15;;;19.80;48.50;;;;;;5163105;28;20041;-77
2020/12/11 06:16:26;;;;;;;10.05;6.38;;;19.80;48.40;;;;;;5161725;28;20038;-77
2020/12/11 06:19:01;;;;;;;10.43;7.15;;;19.80;48.80;;;;;;5146943;28;20040;-79
2020/12/11 06:23:27;;;;;;;11.23;7.55;;;19.80;48.80;;;;;;5287083;27;20117;-79
2020/12/11 06:25:59;;;;;;;10.35;7.15;;;19.80;48.70;;;;;;5257989;28;20098;-78
2020/12/11 06:28:38;;;;;;;11.13;7.07;;;19.80;48.70;;;;;;5263481;28;20050;-78
2020/12/11 06:31:10;;;;;;;11.68;7.03;;;19.80;48.60;;;;;;5262916;28;20044;-78
2020/12/11 06:33:59;;;;;;;10.25;7.25;;;19.80;48.50;;;;;;5251274;28;20021;-78
2020/12/11 06:36:42;;;;;;;10.88;6.95;;;19.80;48.60;;;;;;5239858;28;20098;-78
2020/12/11 06:39:13;;;;;;;10.98;7.72;;;19.80;48.60;;;;;;5226243;28;20112;-78
2020/12/11 06:41:43;;;;;;;9.43;6.80;;;19.80;48.00;;;;;;5241154;28;20112;-79
2020/12/11 06:44:15;;;;;;;10.57;7.20;;;19.70;48.40;;;;;;5223744;28;20035;-78
2020/12/11 06:47:08;;;;;;;11.77;7.55;;;19.80;48.70;;;;;;5188875;28;20064;-76
2020/12/11 06:50:06;;;;;;;11.32;7.45;;;19.80;48.70;;;;;;5199534;28;20049;-77
2020/12/11 06:52:37;;;;;;;9.10;6.85;;;19.80;48.60;;;;;;5226621;28;20059;-76
2020/12/11 06:55:07;;;;;;;12.45;7.00;;;19.80;48.60;;;;;;5243588;28;20025;-79
2020/12/11 06:57:39;;;;;;;11.63;7.35;;;19.80;48.60;;;;;;5238537;28;20027;-78
2020/12/11 07:00:24;;;;;;;11.20;7.72;;;19.80;48.50;;;;;;5243159;28;20021;-78
2020/12/11 07:03:17;;;;;;;11.30;8.02;;;19.90;48.50;;;;;;5261490;28;20019;-77
2020/12/11 07:06:00;;;;;;;11.50;7.75;;;19.90;48.50;;;;;;5240591;28;20029;-78
2020/12/11 07:08:31;;;;;;;13.18;7.95;;;19.80;48.50;;;;;;5264994;28;20032;-78
2020/12/11 07:11:03;;;;;;;11.77;7.80;;;19.80;48.50;;;;;;5259847;28;20033;-78
2020/12/11 07:13:35;;;;;;;14.07;7.90;;;19.80;48.50;;;;;;5246537;28;20515;-78
2020/12/11 07:16:06;;;;;;;12.63;8.23;;;19.80;48.30;;;;;;5234222;28;20112;-78
2020/12/11 07:18:36;;;;;;;13.50;8.18;;;19.80;48.10;;;;;;5221784;28;20448;-79
2020/12/11 07:21:07;;;;;;;11.32;7.88;;;19.80;48.30;;;;;;5221901;28;20041;-77
2020/12/11 07:23:37;;;;;;;12.30;8.10;;;19.80;48.20;;;;;;5226578;28;20490;-78
2020/12/11 07:26:08;;;;;;;15.13;7.28;;;19.80;48.60;;;;;;5242576;28;20044;-79
2020/12/11 07:28:38;;;;;;;13.02;8.45;;;19.80;48.60;;;;;;5239268;28;20024;-77
2020/12/11 07:31:12;;;;;;;12.43;8.20;;;19.90;48.60;;;;;;5210960;28;20612;-77
2020/12/11 07:33:42;;;;;;;13.48;7.93;;;19.90;48.70;;;;;;5207382;28;20029;-78
2020/12/11 07:36:13;;;;;;;12.27;7.75;;;19.90;48.70;;;;;;5221253;28;20434;-79
2020/12/11 07:38:43;;;;;;;14.10;8.20;;;19.90;48.70;;;;;;5229562;28;20037;-77
2020/12/11 07:41:17;;;;;;;12.80;7.65;;;19.90;48.80;;;;;;5230043;28;20094;-78
2020/12/11 07:43:47;;;;;;;12.25;7.72;;;19.90;48.70;;;;;;5228874;28;20056;-78
2020/12/11 07:46:22;;;;;;;12.45;7.78;;;19.90;48.60;;;;;;5229230;28;20032;-78
2020/12/11 07:48:52;;;;;;;16.23;8.20;;;19.90;48.50;;;;;;5249371;28;20065;-78
2020/12/11 07:51:23;;;;;;;15.52;8.32;;;19.90;48.40;;;;;;5246343;28;20126;-78
2020/12/11 07:53:54;;;;;;;13.23;7.40;;;19.90;48.50;;;;;;5245437;28;20029;-78
2020/12/11 07:56:27;;;;;;;14.68;7.28;;;20.10;49.90;;;;;;5215390;28;20025;-77
2020/12/11 07:59:11;;;;;;;10.30;7.25;;;20.10;50.20;;;;;;5204426;28;20028;-78
2020/12/11 08:01:46;;;;;;;15.77;8.10;;;20.20;49.80;;;;;;5231507;28;20120;-77
2020/12/11 08:04:17;;;;;;;12.85;7.20;;;20.20;49.50;;;;;;5228285;28;20028;-77
2020/12/11 08:07:00;;;;;;;10.70;7.47;;;20.20;49.60;;;;;;5227424;28;20025;-78
2020/12/11 08:09:31;;;;;;;14.80;7.53;;;20.20;49.50;;;;;;5233140;28;20043;-78
2020/12/11 08:12:17;;;;;;;12.38;7.93;;;20.20;49.40;;;;;;5212524;28;20059;-78
2020/12/11 08:14:48;;;;;;;12.10;7.63;;;20.30;49.30;;;;;;5190373;28;20484;-77
2020/12/11 08:17:21;;;;;;;11.10;8.00;;;20.30;49.20;;;;;;5181527;28;20037;-79
2020/12/11 08:20:01;;;;;;;11.45;7.70;;;20.30;49.20;;;;;;5206952;28;20839;-77
2020/12/11 08:22:40;;;;;;;10.68;7.22;;;20.30;49.30;;;;;;5190096;28;20079;-78
2020/12/11 08:25:17;;;;;;;15.13;7.30;;;20.40;49.20;;;;;;5189885;28;20040;-78
2020/12/11 08:27:49;;;;;;;12.65;7.97;;;20.30;49.10;;;;;;5191553;28;20029;-78
2020/12/11 08:30:21;;;;;;;13.63;8.55;;;20.30;48.90;;;;;;5207320;28;20129;-78
2020/12/11 08:32:52;;;;;;;13.55;8.63;;;20.30;48.60;;;;;;5207408;28;20502;-78
2020/12/11 08:35:22;;;;;;;12.90;8.18;;;20.40;49.10;;;;;;5218963;28;20074;-78
2020/12/11 08:37:54;;;;;;;16.23;8.80;;;20.40;48.30;;;;;;5209060;28;20013;-78
2020/12/11 08:40:25;;;;;;;15.27;8.80;;;20.40;48.30;;;;;;5224990;28;20037;-79
2020/12/11 08:42:58;;;;;;;13.98;9.07;;;20.40;49.00;;;;;;5188809;28;20059;-77
2020/12/11 08:45:34;;;;;;;20.77;9.13;;;20.30;48.30;;;;;;5205408;28;20060;-78
2020/12/11 08:50:47;;;;;;;16.15;9.73;;;20.30;48.20;;;;;;5215567;28;20019;-80
2020/12/11 08:53:18;;;;;;;15.15;8.52;;;20.30;48.00;;;;;;5208664;28;20399;-80
2020/12/11 08:55:49;;;;;;;14.60;8.63;;;20.30;48.00;;;;;;5226607;28;20071;-81
2020/12/11 08:58:19;;;;;;;16.00;9.68;;;20.30;47.90;;;;;;5211051;28;20056;-82
2020/12/11 09:00:50;;;;;;;15.05;9.45;;;20.30;47.80;;;;;;5216894;28;20033;-81
2020/12/11 09:03:20;;;;;;;14.68;9.02;;;20.30;47.80;;;;;;5226394;28;20166;-79
2020/12/11 09:05:51;;;;;;;15.77;9.13;;;20.30;47.70;;;;;;5225276;28;20059;-81
2020/12/11 09:08:21;;;;;;;16.98;9.07;;;20.30;47.80;;;;;;5209680;28;20025;-80
2020/12/11 09:10:52;;;;;;;14.70;9.48;;;20.30;47.60;;;;;;5218446;28;20025;-80
2020/12/11 09:13:22;;;;;;;16.52;9.48;;;20.30;47.70;;;;;;5221525;28;20089;-80
2020/12/11 09:15:52;;;;;;;15.93;9.45;;;20.20;47.50;;;;;;5209355;28;20031;-82
2020/12/11 09:18:24;;;;;;;16.33;9.55;;;20.20;47.60;;;;;;5207084;28;20394;-82
2020/12/11 09:20:54;;;;;;;15.40;9.43;;;20.20;47.50;;;;;;5216367;28;20037;-82
2020/12/11 09:23:25;;;;;;;14.98;9.07;;;20.20;47.50;;;;;;5246917;28;20025;-82
2020/12/11 09:25:55;;;;;;;16.13;9.48;;;20.20;47.50;;;;;;5195949;28;20494;-81
2020/12/11 09:28:26;;;;;;;16.80;10.18;;;20.20;48.00;;;;;;5214953;28;20021;-81
2020/12/11 09:30:56;;;;;;;15.93;9.95;;;20.30;47.30;;;;;;5220016;28;20029;-81
2020/12/11 09:33:29;;;;;;;17.55;10.02;;;20.20;47.30;;;;;;5210986;28;20021;-81
2020/12/11 09:35:59;;;;;;;18.35;10.43;;;20.30;47.20;;;;;;5209119;28;20109;-80
2020/12/11 09:38:29;;;;;;;14.40;8.90;;;20.30;47.10;;;;;;5212959;28;20057;-79
2020/12/11 09:41:02;;;;;;;17.27;10.10;;;20.30;47.20;;;;;;5220288;28;20029;-85
2020/12/11 09:44:10;;;;;;;15.60;9.88;;;20.30;47.00;;;;;;5228731;28;20021;-81
2020/12/11 09:49:16;;;;;;;17.48;10.88;;;20.10;46.50;;;;;;5205374;28;20025;-81
2020/12/11 09:52:00;;;;;;;20.25;11.00;;;20.10;47.50;;;;;;5190166;28;20038;-80
2020/12/11 09:54:34;;;;;;;16.88;9.93;;;20.10;48.20;;;;;;5214020;28;20045;-81
2020/12/11 09:57:04;;;;;;;16.75;9.65;;;20.10;48.30;;;;;;5186069;28;20034;-78
2020/12/11 09:59:44;;;;;;;20.00;10.35;;;20.20;48.10;;;;;;5189957;28;20028;-80
2020/12/11 10:04:49;;;;;;;22.00;12.18;;;20.20;48.00;;;;;;5193095;28;20108;-82
2020/12/11 10:07:20;;;;;;;17.95;9.63;;;20.20;47.90;;;;;;5178364;28;20026;-82
2020/12/11 10:09:50;;;;;;;23.92;12.35;;;20.20;48.40;;;;;;5169347;28;20025;-85
2020/12/11 10:12:28;;;;;;;20.60;12.07;;;20.00;44.30;;;;;;5220557;28;20737;-86
2020/12/11 10:15:07;;;;;;;22.15;12.38;;;19.60;44.90;;;;;;5204799;28;20022;-85
2020/12/11 10:17:38;;;;;;;23.17;12.95;;;19.40;45.10;;;;;;5188965;28;20025;-85
2020/12/11 10:20:08;;;;;;;23.23;12.23;;;19.30;44.80;;;;;;5187896;28;20045;-85
2020/12/11 10:22:39;;;;;;;21.08;11.75;;;19.10;45.10;;;;;;5189282;28;20044;-86
2020/12/11 10:25:09;;;;;;;20.15;11.90;;;19.00;46.80;;;;;;5189325;28;20072;-87
2020/12/11 10:27:40;;;;;;;20.70;11.25;;;19.10;46.00;;;;;;5190653;28;20025;-87
2020/12/11 10:30:10;;;;;;;20.27;12.35;;;19.00;47.00;;;;;;5185651;28;20093;-87
2020/12/11 10:32:41;;;;;;;17.40;10.55;;;19.00;46.00;;;;;;5187062;28;20034;-85
2020/12/11 10:35:11;;;;;;;20.83;11.77;;;19.00;46.00;;;;;;5169676;28;20045;-85
2020/12/11 10:37:42;;;;;;;19.58;10.63;;;18.90;44.80;;;;;;5170904;28;20025;-83
2020/12/11 10:40:12;;;;;;;19.67;11.02;;;19.00;45.40;;;;;;5190147;28;20028;-86
2020/12/11 10:42:43;;;;;;;19.48;11.85;;;19.00;46.00;;;;;;5207874;28;20056;-86
2020/12/11 10:45:13;;;;;;;19.27;11.02;;;19.10;45.80;;;;;;5207007;28;20033;-87
2020/12/11 10:47:44;;;;;;;18.45;11.02;;;19.10;45.80;;;;;;5207531;28;20403;-86
2020/12/11 10:50:14;;;;;;;17.30;10.10;;;19.10;44.80;;;;;;5207403;28;20033;-85
2020/12/11 10:52:45;;;;;;;17.80;10.75;;;19.10;45.20;;;;;;5190742;28;20029;-86
2020/12/11 10:55:15;;;;;;;21.42;11.18;;;19.10;45.50;;;;;;5185865;28;20396;-85
2020/12/11 10:57:46;;;;;;;22.20;11.20;;;19.10;45.50;;;;;;5170671;28;20038;-86
2020/12/11 11:00:16;;;;;;;20.63;10.63;;;19.10;44.10;;;;;;5172871;28;20376;-87
2020/12/11 11:02:47;;;;;;;17.10;10.23;;;19.10;44.60;;;;;;5170715;28;20030;-86
2020/12/11 11:05:17;;;;;;;18.95;11.18;;;19.20;45.10;;;;;;5175267;28;20079;-86
2020/12/11 11:07:48;;;;;;;18.83;11.10;;;19.10;43.60;;;;;;5191643;28;20057;-86
2020/12/11 11:10:31;;;;;;;18.10;9.80;;;19.10;45.00;;;;;;5194624;28;20112;-86
2020/12/11 11:13:14;;;;;;;19.50;11.80;;;19.10;43.90;;;;;;5196576;28;20053;-86
2020/12/11 11:15:49;;;;;;;19.02;10.98;;;19.00;44.70;;;;;;5205728;28;20022;-86
2020/12/11 11:18:31;;;;;;;18.40;10.38;;;18.90;43.60;;;;;;5175444;28;20026;-86
2020/12/11 11:23:49;;;;;;;19.20;11.30;;;18.90;44.10;;;;;;5212125;28;20518;-86
2020/12/11 11:26:41;;;;;;;21.58;10.80;;;18.90;44.10;;;;;;5210894;28;20022;-86
2020/12/11 11:29:12;;;;;;;17.80;10.32;;;18.90;43.10;;;;;;5213902;28;20025;-85
2020/12/11 11:31:45;;;;;;;16.83;11.00;;;18.90;43.70;;;;;;5193195;28;20129;-85
2020/12/11 11:34:16;;;;;;;20.13;11.10;;;18.80;43.50;;;;;;5212798;28;20503;-85
2020/12/11 11:36:50;;;;;;;17.98;10.63;;;18.90;44.00;;;;;;5210276;28;20025;-83
2020/12/11 11:39:20;;;;;;;18.70;10.52;;;18.80;43.60;;;;;;5211152;28;20076;-84
2020/12/11 11:41:55;;;;;;;24.08;13.40;;;18.80;43.30;;;;;;5209778;28;20041;-81
2020/12/11 11:44:52;;;;;;;19.30;11.38;;;18.60;41.70;;;;;;5220115;28;20037;-82
2020/12/11 11:47:16;;;;;;;21.35;12.70;;;18.50;43.50;;;;;;5191417;28;20377;-81
2020/12/11 11:54:51;;;;;;;14.27;8.70;;;19.00;51.90;;;;;;5206247;28;20094;-81
2020/12/11 11:57:22;;;;;;;16.75;8.70;;;19.50;51.30;;;;;;5201771;28;20021;-80
2020/12/11 11:59:52;;;;;;;14.60;8.77;;;19.70;50.40;;;;;;5215047;28;20033;-82
2020/12/11 12:02:23;;;;;;;14.90;8.93;;;19.90;50.00;;;;;;5190028;28;20030;-81
2020/12/11 12:04:53;;;;;;;14.73;9.07;;;19.90;49.60;;;;;;5203529;28;20543;-81
2020/12/11 12:07:25;;;;;;;14.32;8.85;;;20.00;49.40;;;;;;5196829;28;20021;-81
2020/12/11 12:09:56;;;;;;;13.95;9.38;;;20.10;49.30;;;;;;5206736;28;20059;-82
2020/12/11 12:12:26;;;;;;;14.77;8.73;;;20.10;49.30;;;;;;5205042;28;20053;-81
2020/12/11 12:14:57;;;;;;;14.40;9.23;;;20.10;49.30;;;;;;5212663;28;20447;-80
2020/12/11 12:17:35;;;;;;;14.63;8.30;;;20.10;49.20;;;;;;5209298;28;20029;-84
2020/12/11 12:20:14;;;;;;;19.90;11.13;;;20.10;49.10;;;;;;5209375;28;20032;-82
2020/12/11 12:29:08;;;;;;;16.70;9.25;;;20.00;49.80;;;;;;5218946;28;20032;-82
2020/12/11 12:31:17;;;;;;;16.13;8.93;;;20.10;50.10;;;;;;5216755;28;20044;-80
2020/12/11 12:34:22;;;;;;;20.02;10.55;;;20.10;50.40;;;;;;5190588;28;20441;-82
2020/12/11 12:44:49;;;;;;;16.27;9.00;;;20.10;52.80;;;;;;5228045;28;20033;-82
2020/12/11 12:47:19;;;;;;;19.35;10.15;;;20.10;53.60;;;;;;5201597;28;20033;-83
2020/12/11 12:49:49;;;;;;;16.27;10.00;;;20.10;53.90;;;;;;5226187;28;20061;-82
2020/12/11 12:52:20;;;;;;;18.08;9.57;;;20.10;54.50;;;;;;5206508;28;20051;-82
2020/12/11 12:54:50;;;;;;;18.90;10.15;;;20.10;54.80;;;;;;5218931;28;20025;-82
2020/12/11 12:57:27;;;;;;;22.10;9.90;;;20.10;55.10;;;;;;5221676;28;20028;-81
2020/12/11 13:00:19;;;;;;;18.58;10.20;;;20.10;57.70;;;;;;5211455;28;20042;-82
2020/12/11 13:05:29;;;;;;;17.25;10.05;;;20.20;54.10;;;;;;5218552;28;20077;-81
2020/12/11 13:08:03;;;;;;;17.05;10.60;;;20.10;53.20;;;;;;5222983;28;20069;-82
2020/12/11 13:10:33;;;;;;;19.90;11.10;;;20.00;52.60;;;;;;5220628;28;20021;-83
2020/12/11 13:13:08;;;;;;;16.98;10.13;;;19.90;52.40;;;;;;5226325;28;20036;-81
2020/12/11 13:15:38;;;;;;;15.95;9.20;;;20.00;51.80;;;;;;5225867;28;20029;-82
2020/12/11 13:18:09;;;;;;;16.95;10.02;;;20.00;51.40;;;;;;5187344;28;20024;-82
2020/12/11 13:20:42;;;;;;;17.52;10.18;;;20.00;51.10;;;;;;5223773;28;20017;-81
2020/12/11 13:28:32;;;;;;;38.95;11.20;;;20.00;50.40;;;;;;5226613;28;20067;-81
2020/12/11 13:31:03;;;;;;;30.98;9.38;;;20.10;54.70;;;;;;5228548;28;20040;-80
2020/12/11 13:33:33;;;;;;;22.90;8.25;;;19.80;54.70;;;;;;5242059;28;20021;-81
2020/12/11 13:36:05;;;;;;;18.83;7.53;;;19.80;54.80;;;;;;5235172;28;20056;-81
2020/12/11 13:38:36;;;;;;;24.30;7.07;;;19.70;54.80;;;;;;5238436;28;20099;-80